Time;durP1;ratioP1;P1;durP2;ratioP2;P2;SDS_P1;SDS_P2;PMS_P1;PMS_P2;Temp;Humidity;BMP_temperature;BMP_pressure;BME280_temperature;BME280_humidity;BME280_pressure;Samples;Min_cycle;Max_cycle;Signal;HPM_P1;HPM_P2
2021/08/25 00:00:06;;;;;;;12.05;8.48;;;;;;;22.78;61.61;99603.55;1847786;77;21053;-68
2021/08/25 00:02:36;;;;;;;11.33;9.18;;;;;;;22.77;61.54;99601.39;1842798;77;21548;-68
2021/08/25 00:05:03;;;;;;;10.55;8.98;;;;;;;22.76;61.46;99602.45;1828690;77;21010;-69
2021/08/25 00:07:30;;;;;;;10.35;8.65;;;;;;;22.76;61.48;99602.45;1847279;77;21072;-67
2021/08/25 00:09:57;;;;;;;11.53;9.00;;;;;;;22.76;61.47;99603.80;1847633;77;21131;-67
2021/08/25 00:12:23;;;;;;;12.30;9.08;;;;;;;22.77;61.53;99597.84;1844205;76;20974;-68
2021/08/25 00:14:49;;;;;;;14.95;11.43;;;;;;;22.76;61.67;99593.52;1845361;77;21100;-67
2021/08/25 00:17:18;;;;;;;12.68;10.05;;;;;;;22.73;61.94;99591.30;1814317;77;21096;-69
2021/08/25 00:19:46;;;;;;;12.65;10.18;;;;;;;22.73;62.14;99597.52;1806372;77;21038;-70
2021/08/25 00:22:13;;;;;;;10.28;9.25;;;;;;;22.72;62.30;99601.86;1828315;77;21083;-68
2021/08/25 00:24:41;;;;;;;10.53;9.43;;;;;;;22.73;62.55;99602.13;1841612;76;21640;-69
2021/08/25 00:27:08;;;;;;;9.93;8.88;;;;;;;22.72;62.90;99608.09;1839792;77;21537;-69
2021/08/25 00:29:35;;;;;;;10.15;9.10;;;;;;;22.73;63.14;99614.31;1814511;77;21634;-69
2021/08/25 00:32:02;;;;;;;9.68;8.23;;;;;;;22.72;63.28;99623.52;1842548;77;21028;-69
2021/08/25 00:34:29;;;;;;;11.57;9.05;;;;;;;22.72;63.43;99624.88;1847699;77;21135;-69
2021/08/25 00:36:55;;;;;;;12.47;9.23;;;;;;;22.72;63.35;99629.75;1815873;77;21014;-68
2021/08/25 00:39:22;;;;;;;11.20;9.55;;;;;;;22.72;63.30;99618.11;1847530;77;21064;-68
2021/08/25 00:41:48;;;;;;;12.30;9.75;;;;;;;22.71;63.25;99621.88;1817904;77;21030;-67
2021/08/25 00:44:16;;;;;;;11.25;9.70;;;;;;;22.70;63.10;99618.35;1846876;77;21026;-68
2021/08/25 00:46:45;;;;;;;11.85;9.13;;;;;;;22.71;63.03;99621.88;1847507;77;21139;-68
2021/08/25 00:49:17;;;;;;;12.43;10.65;;;;;;;22.70;62.96;99620.25;1847460;77;21089;-68
2021/08/25 00:51:48;;;;;;;13.60;11.45;;;;;;;22.70;63.03;99623.77;1847611;77;21022;-68
2021/08/25 00:54:15;;;;;;;29.42;24.57;;;;;;;22.69;63.08;99620.77;1847484;77;21037;-68
2021/08/25 00:56:45;;;;;;;17.65;15.58;;;;;;;22.70;63.10;99624.31;1847592;77;21040;-67
2021/08/25 00:59:12;;;;;;;13.95;12.10;;;;;;;22.70;63.26;99621.60;1847208;77;21149;-69
2021/08/25 01:02:06;;;;;;;12.65;11.35;;;;;;;22.68;63.46;99620.49;1847562;77;20993;-68
2021/08/25 01:04:43;;;;;;;10.93;9.80;;;;;;;22.68;63.72;99623.20;1837349;77;21096;-67
2021/08/25 01:07:11;;;;;;;10.05;9.05;;;;;;;22.67;63.96;99625.61;1830648;77;21702;-68
2021/08/25 01:09:39;;;;;;;10.58;8.85;;;;;;;22.65;64.19;99631.00;1815894;77;21525;-67
2021/08/25 01:12:11;;;;;;;11.45;9.88;;;;;;;22.65;64.08;99637.23;1847822;77;21108;-67
2021/08/25 01:14:39;;;;;;;11.08;9.45;;;;;;;22.64;63.99;99626.64;1840510;76;21030;-66
2021/08/25 01:17:05;;;;;;;10.90;9.83;;;;;;;22.63;64.00;99632.59;1824482;77;21075;-68
2021/08/25 01:20:08;;;;;;;14.63;10.78;;;;;;;22.62;64.07;99623.37;1847624;77;21025;-67
2021/08/25 01:22:35;;;;;;;11.90;9.08;;;;;;;22.61;64.17;99627.97;1830067;77;21025;-68
2021/08/25 01:25:01;;;;;;;11.40;10.20;;;;;;;22.61;64.37;99624.45;1847145;77;21098;-66
2021/08/25 01:27:28;;;;;;;12.30;10.18;;;;;;;22.60;64.49;99616.03;1837188;77;21045;-67
2021/08/25 01:29:56;;;;;;;13.20;10.90;;;;;;;22.60;64.63;99614.17;1836925;77;21139;-67
2021/08/25 01:32:23;;;;;;;13.43;11.10;;;;;;;22.61;64.53;99618.50;1842090;76;21087;-67
2021/08/25 01:34:53;;;;;;;13.40;11.68;;;;;;;22.62;64.52;99616.59;1758637;81;21077;-68
2021/08/25 01:37:22;;;;;;;12.23;9.83;;;;;;;22.61;64.34;99612.27;1765774;81;21072;-68
2021/08/25 01:39:51;;;;;;;13.05;10.70;;;;;;;22.61;64.46;99612.27;1765659;81;21528;-68
2021/08/25 01:42:19;;;;;;;12.30;10.03;;;;;;;22.61;64.75;99610.92;1765914;81;21041;-67
2021/08/25 01:44:46;;;;;;;13.48;10.95;;;;;;;22.61;65.01;99598.73;1765743;81;21006;-68
2021/08/25 01:47:14;;;;;;;12.23;11.03;;;;;;;22.61;65.10;99587.91;1765730;81;21542;-68
2021/08/25 01:49:43;;;;;;;15.28;11.30;;;;;;;22.60;65.13;99587.09;1755855;80;21971;-67
2021/08/25 01:52:10;;;;;;;12.05;10.80;;;;;;;22.60;65.25;99595.73;1765730;81;20993;-67
2021/08/25 01:54:39;;;;;;;12.00;10.80;;;;;;;22.59;65.37;99578.67;1762800;81;21030;-68
2021/08/25 01:57:07;;;;;;;12.30;10.48;;;;;;;22.60;65.55;99576.78;1811830;78;20989;-68
2021/08/25 01:59:35;;;;;;;13.60;11.63;;;;;;;22.60;65.58;99571.36;1829383;78;21096;-67
2021/08/25 02:02:03;;;;;;;13.85;12.28;;;;;;;22.60;65.36;99573.56;1836838;78;21145;-67
2021/08/25 02:04:30;;;;;;;15.63;11.45;;;;;;;22.60;65.29;99568.66;1832846;78;21077;-67
2021/08/25 02:06:57;;;;;;;13.62;12.03;;;;;;;22.61;65.35;99566.25;1833448;76;21080;-68
2021/08/25 02:09:23;;;;;;;12.13;10.82;;;;;;;22.60;65.44;99564.08;1760921;81;21040;-67
2021/08/25 02:11:50;;;;;;;12.95;10.93;;;;;;;22.59;65.56;99565.14;1765717;81;21025;-66
2021/08/25 02:14:16;;;;;;;11.68;10.25;;;;;;;22.58;65.85;99558.11;1766028;81;21107;-66
2021/08/25 02:16:43;;;;;;;12.53;11.08;;;;;;;22.57;65.96;99551.03;1765771;81;21076;-68
2021/08/25 02:19:10;;;;;;;11.97;10.50;;;;;;;22.56;66.11;99546.68;1765909;81;21017;-67
2021/08/25 02:21:36;;;;;;;12.93;11.12;;;;;;;22.55;66.23;99539.10;1765719;81;21092;-68
2021/08/25 02:24:04;;;;;;;11.88;10.68;;;;;;;22.57;66.26;99548.33;1754913;80;22171;-67
2021/08/25 02:26:30;;;;;;;13.38;12.03;;;;;;;22.57;66.35;99538.86;1781602;79;21136;-67
2021/08/25 02:28:57;;;;;;;14.55;11.70;;;;;;;22.57;66.40;99541.56;1822644;77;21029;-66
2021/08/25 02:31:26;;;;;;;13.28;11.88;;;;;;;22.56;66.45;99536.69;1843580;77;22097;-67
2021/08/25 02:33:55;;;;;;;13.22;11.83;;;;;;;22.57;66.45;99534.80;1855263;77;20993;-66
2021/08/25 02:36:21;;;;;;;13.32;11.43;;;;;;;22.57;66.43;99542.92;1856652;77;21592;-67
2021/08/25 02:38:48;;;;;;;13.43;11.10;;;;;;;22.57;66.38;99535.61;1856269;76;21211;-68
2021/08/25 02:41:17;;;;;;;12.90;10.70;;;;;;;22.57;66.37;99541.02;1838954;77;21006;-67
2021/08/25 02:43:44;;;;;;;12.40;11.15;;;;;;;22.57;66.44;99534.25;1856600;77;21029;-67
2021/08/25 02:46:13;;;;;;;12.43;11.22;;;;;;;22.57;66.41;99531.55;1785717;80;21096;-67
2021/08/25 02:48:42;;;;;;;12.98;11.15;;;;;;;22.57;66.28;99532.09;1785643;79;21046;-68
2021/08/25 02:51:08;;;;;;;12.40;11.00;;;;;;;22.57;66.16;99532.09;1786870;80;21144;-67
2021/08/25 02:53:36;;;;;;;12.03;10.75;;;;;;;22.57;65.78;99538.31;1782341;80;21058;-67
2021/08/25 02:56:03;;;;;;;13.43;12.03;;;;;;;22.57;65.39;99537.50;1857071;76;21529;-69
2021/08/25 02:58:31;;;;;;;12.50;11.18;;;;;;;22.57;64.94;99534.80;1857653;77;21029;-67
2021/08/25 03:00:58;;;;;;;12.82;11.45;;;;;;;22.55;64.45;99536.39;1856302;77;21065;-69
2021/08/25 03:03:25;;;;;;;14.93;11.65;;;;;;;22.54;64.20;99526.66;1856781;77;21841;-69
2021/08/25 03:05:53;;;;;;;15.58;10.70;;;;;;;22.54;64.14;99532.58;1856189;77;21004;-68
2021/08/25 03:08:20;;;;;;;11.25;10.05;;;;;;;22.53;64.04;99533.67;1856715;77;21584;-67
2021/08/25 03:10:46;;;;;;;11.80;9.83;;;;;;;22.53;63.95;99542.59;1856751;77;21040;-68
2021/08/25 03:13:12;;;;;;;11.97;10.78;;;;;;;22.53;63.97;99543.14;1859202;76;21092;-66
2021/08/25 03:15:39;;;;;;;11.90;10.58;;;;;;;22.53;63.85;99536.37;1784131;80;21766;-69
2021/08/25 03:18:05;;;;;;;12.15;9.78;;;;;;;22.52;64.08;99536.92;1784001;80;21014;-67
2021/08/25 03:20:31;;;;;;;30.60;24.15;;;;;;;22.53;63.98;99537.73;1856570;77;21109;-67
2021/08/25 03:22:58;;;;;;;12.78;10.72;;;;;;;22.52;63.88;99537.43;1832955;77;21045;-66
2021/08/25 03:25:26;;;;;;;12.73;10.45;;;;;;;22.51;63.84;99537.97;1856732;77;21017;-67
2021/08/25 03:27:53;;;;;;;13.62;10.63;;;;;;;22.51;63.93;99538.52;1848076;77;21092;-68
2021/08/25 03:30:24;;;;;;;12.55;10.93;;;;;;;22.52;64.30;99538.78;1848193;77;21001;-67
2021/08/25 03:32:50;;;;;;;10.72;9.05;;;;;;;22.51;64.29;99531.20;1848164;77;21010;-67
2021/08/25 03:35:17;;;;;;;11.25;10.03;;;;;;;22.51;64.09;99533.10;1847572;77;20990;-68
2021/08/25 03:37:44;;;;;;;11.63;9.80;;;;;;;22.50;63.95;99532.30;1822449;77;21081;-68
2021/08/25 03:40:11;;;;;;;11.63;10.43;;;;;;;22.50;63.92;99539.06;1841481;77;21117;-67
2021/08/25 03:42:39;;;;;;;16.62;13.62;;;;;;;22.50;64.54;99539.06;1843470;77;20987;-68
2021/08/25 03:45:07;;;;;;;21.68;17.45;;;;;;;22.49;65.04;99536.05;1820824;77;21178;-67
2021/08/25 03:47:34;;;;;;;17.25;15.32;;;;;;;22.50;65.46;99544.98;1844239;77;21021;-68
2021/08/25 03:50:02;;;;;;;14.83;13.32;;;;;;;22.50;65.58;99542.28;1824496;77;21073;-68
2021/08/25 03:52:29;;;;;;;14.15;11.08;;;;;;;22.49;65.59;99542.82;1840607;77;21140;-67
2021/08/25 03:54:58;;;;;;;14.50;11.43;;;;;;;22.49;65.73;99540.11;1847682;77;21017;-68
2021/08/25 03:57:26;;;;;;;12.07;10.90;;;;;;;22.50;65.78;99542.28;1847622;77;21002;-66
2021/08/25 03:59:52;;;;;;;13.75;11.15;;;;;;;22.49;65.89;99541.47;1847641;77;21596;-67
2021/08/25 04:02:18;;;;;;;11.73;10.18;;;;;;;22.49;65.97;99540.66;1847774;77;21028;-67
2021/08/25 04:04:45;;;;;;;11.78;10.58;;;;;;;22.50;66.27;99539.57;1846716;77;21148;-67
2021/08/25 04:07:12;;;;;;;15.63;11.97;;;;;;;22.50;66.60;99541.77;1847477;77;21080;-68
2021/08/25 04:09:40;;;;;;;12.80;11.45;;;;;;;22.50;66.72;99535.00;1815836;77;21514;-68
2021/08/25 04:12:07;;;;;;;12.82;11.53;;;;;;;22.50;66.94;99537.70;1824521;77;21014;-67
2021/08/25 04:14:35;;;;;;;12.60;10.00;;;;;;;22.49;66.42;99533.34;1840267;77;21002;-68
2021/08/25 04:17:02;;;;;;;10.72;9.60;;;;;;;22.51;65.56;99534.45;1847696;77;21126;-67
2021/08/25 04:19:28;;;;;;;11.55;10.35;;;;;;;22.51;64.86;99533.10;1847492;77;21042;-67
2021/08/25 04:21:55;;;;;;;11.25;10.03;;;;;;;22.50;64.43;99532.30;1847928;77;20974;-67
2021/08/25 04:24:21;;;;;;;12.05;10.70;;;;;;;22.51;64.15;99527.69;1847656;77;21537;-67
2021/08/25 04:26:47;;;;;;;12.10;10.78;;;;;;;22.50;63.82;99526.88;1843331;77;21002;-67
2021/08/25 04:29:14;;;;;;;11.22;9.93;;;;;;;22.51;63.66;99521.73;1836343;77;21105;-67
2021/08/25 04:31:40;;;;;;;12.25;10.78;;;;;;;22.51;63.52;99523.09;1783687;80;21498;-67
2021/08/25 04:34:07;;;;;;;12.33;9.85;;;;;;;22.51;63.51;99520.37;1819641;78;21003;-68
2021/08/25 04:36:36;;;;;;;13.55;10.90;;;;;;;22.50;63.52;99515.21;1836805;78;21037;-66
2021/08/25 04:39:03;;;;;;;13.28;10.85;;;;;;;22.51;63.60;99523.09;1837270;76;21017;-67
2021/08/25 04:41:29;;;;;;;11.70;10.48;;;;;;;22.51;63.71;99523.09;1836008;78;21120;-68
2021/08/25 04:43:56;;;;;;;12.73;9.95;;;;;;;22.52;63.71;99514.42;1761377;81;21005;-68
2021/08/25 04:46:23;;;;;;;14.05;10.40;;;;;;;22.53;63.63;99517.42;1835903;78;21041;-67
2021/08/25 04:48:50;;;;;;;11.10;9.75;;;;;;;22.53;63.44;99522.30;1804116;78;21521;-67
2021/08/25 04:51:16;;;;;;;14.03;10.72;;;;;;;22.53;63.33;99522.84;1837101;78;21065;-68
2021/08/25 04:53:43;;;;;;;12.60;10.45;;;;;;;22.53;63.31;99517.42;1837347;78;21079;-68
2021/08/25 04:56:10;;;;;;;13.08;9.85;;;;;;;22.52;63.17;99520.67;1835003;76;21100;-68
2021/08/25 04:58:36;;;;;;;11.05;9.38;;;;;;;22.53;63.17;99518.23;1815351;78;20991;-68
2021/08/25 05:01:07;;;;;;;10.88;9.83;;;;;;;22.53;63.12;99512.02;1836655;78;21045;-68
2021/08/25 05:03:34;;;;;;;10.70;9.70;;;;;;;22.53;62.91;99516.07;1784164;80;21100;-68
2021/08/25 05:06:07;;;;;;;11.48;9.73;;;;;;;22.52;62.51;99519.33;1831447;78;20987;-68
2021/08/25 05:08:33;;;;;;;14.13;10.85;;;;;;;22.53;62.31;99520.13;1811501;78;21195;-68
2021/08/25 05:11:00;;;;;;;13.48;10.98;;;;;;;22.54;62.04;99516.34;1836959;78;21537;-68
2021/08/25 05:13:26;;;;;;;12.68;10.78;;;;;;;22.53;61.91;99514.17;1819460;76;21088;-67
2021/08/25 05:15:53;;;;;;;12.07;10.10;;;;;;;22.53;61.82;99511.47;1821445;78;21033;-68
2021/08/25 05:18:19;;;;;;;11.53;10.03;;;;;;;22.54;61.82;99514.98;1804110;78;22018;-68
2021/08/25 05:20:46;;;;;;;10.95;9.45;;;;;;;22.52;61.78;99513.91;1836766;78;21077;-68
2021/08/25 05:23:12;;;;;;;11.30;10.10;;;;;;;22.54;61.54;99517.69;1783905;79;21010;-68
2021/08/25 05:25:40;;;;;;;13.80;9.65;;;;;;;22.54;61.15;99515.83;1836794;78;21066;-68
2021/08/25 05:28:07;;;;;;;11.18;9.23;;;;;;;22.53;60.68;99510.66;1845048;77;21048;-67
2021/08/25 05:30:33;;;;;;;12.30;9.93;;;;;;;22.52;60.58;99507.14;1849874;77;21135;-69
2021/08/25 05:33:00;;;;;;;12.93;10.58;;;;;;;22.53;60.64;99511.47;1847637;77;21013;-69
2021/08/25 05:35:26;;;;;;;13.25;9.90;;;;;;;22.52;60.65;99507.14;1847570;77;21057;-68
2021/08/25 05:37:53;;;;;;;12.93;10.93;;;;;;;22.53;60.75;99505.25;1801682;79;20995;-68
2021/08/25 05:40:19;;;;;;;11.38;10.18;;;;;;;22.53;60.87;99506.59;1774559;79;21026;-69
2021/08/25 05:42:46;;;;;;;12.03;10.70;;;;;;;22.53;61.07;99501.19;1755362;80;21102;-68
2021/08/25 05:45:13;;;;;;;12.15;10.48;;;;;;;22.54;61.19;99502.80;1778150;79;21070;-71
2021/08/25 05:47:39;;;;;;;11.93;10.13;;;;;;;22.55;61.31;99501.75;1770575;80;21023;-69
2021/08/25 05:50:07;;;;;;;12.82;10.90;;;;;;;22.55;61.46;99497.14;1766221;80;21054;-68
2021/08/25 05:52:33;;;;;;;12.93;10.78;;;;;;;22.56;61.62;99494.73;1776651;80;21026;-67
2021/08/25 05:54:59;;;;;;;13.32;11.15;;;;;;;22.57;61.65;99492.84;1776976;80;21850;-68
2021/08/25 05:57:26;;;;;;;14.83;11.05;;;;;;;22.57;61.76;99496.35;1776667;80;21010;-69
2021/08/25 05:59:55;;;;;;;13.83;11.43;;;;;;;22.57;61.98;99490.94;1776502;80;21097;-67
2021/08/25 06:02:22;;;;;;;12.25;10.88;;;;;;;22.58;62.13;99494.48;1776478;80;21045;-69
2021/08/25 06:04:48;;;;;;;12.85;11.48;;;;;;;22.58;62.24;99484.47;1787263;79;21022;-67
2021/08/25 06:07:14;;;;;;;13.85;11.70;;;;;;;22.58;62.30;99492.59;1778202;80;21118;-68
2021/08/25 06:09:41;;;;;;;12.58;11.20;;;;;;;22.60;62.46;99493.70;1790573;80;20977;-69
2021/08/25 06:12:07;;;;;;;14.23;11.43;;;;;;;22.61;62.36;99493.16;1790457;79;21076;-69
2021/08/25 06:14:33;;;;;;;14.55;10.50;;;;;;;22.60;62.38;99494.21;1768539;79;21018;-68
2021/08/25 06:16:59;;;;;;;11.97;10.78;;;;;;;22.61;62.46;99495.86;1777162;80;21044;-69
2021/08/25 06:19:28;;;;;;;13.13;11.68;;;;;;;22.62;62.40;99500.19;1780947;80;21066;-70
2021/08/25 06:21:55;;;;;;;12.50;11.20;;;;;;;22.62;62.41;99497.48;1802786;79;21025;-68
2021/08/25 06:24:21;;;;;;;14.28;12.30;;;;;;;22.63;62.37;99491.01;1807589;79;21509;-68
2021/08/25 06:26:47;;;;;;;14.68;12.58;;;;;;;22.63;62.40;99495.07;1806960;79;21088;-68
2021/08/25 06:29:14;;;;;;;15.70;11.73;;;;;;;22.64;62.36;99492.11;1783368;79;21050;-69
2021/08/25 06:31:41;;;;;;;14.38;10.98;;;;;;;22.65;62.20;99489.67;1786558;80;21867;-68
2021/08/25 06:34:07;;;;;;;12.13;10.93;;;;;;;22.65;62.01;99492.38;1790325;80;21053;-67
2021/08/25 06:36:34;;;;;;;15.60;11.20;;;;;;;22.67;61.83;99494.30;1790920;79;21097;-67
2021/08/25 06:39:01;;;;;;;17.12;10.90;;;;;;;22.69;61.69;99494.05;1799067;79;21572;-68
2021/08/25 06:41:27;;;;;;;15.60;11.83;;;;;;;22.71;61.74;99502.19;1793622;79;21568;-68
2021/08/25 06:43:53;;;;;;;15.58;11.90;;;;;;;22.72;61.75;99494.91;1791611;79;21116;-68
2021/08/25 06:46:20;;;;;;;14.95;11.18;;;;;;;22.74;61.81;99501.70;1790679;79;21022;-70
2021/08/25 06:48:46;;;;;;;14.78;11.45;;;;;;;22.77;61.88;99505.77;1790671;79;21104;-69
2021/08/25 06:51:13;;;;;;;12.85;10.18;;;;;;;22.80;61.99;99507.17;1780837;80;21577;-68
2021/08/25 06:53:39;;;;;;;14.58;11.73;;;;;;;22.82;62.04;99503.13;1791170;79;21025;-68
2021/08/25 06:56:05;;;;;;;12.55;11.25;;;;;;;22.85;61.89;99507.21;1804806;79;22360;-69
2021/08/25 06:58:32;;;;;;;13.18;11.63;;;;;;;22.88;61.52;99520.25;1775647;80;21064;-68
2021/08/25 07:00:58;;;;;;;14.47;12.18;;;;;;;22.88;61.04;99512.94;1794382;79;21034;-69
2021/08/25 07:03:25;;;;;;;12.60;11.12;;;;;;;22.90;60.74;99509.98;1776711;80;21513;-69
2021/08/25 07:05:51;;;;;;;14.28;10.95;;;;;;;22.91;60.73;99510.28;1776706;80;21017;-68
2021/08/25 07:08:17;;;;;;;13.98;11.43;;;;;;;22.93;60.66;99521.67;1777132;80;21042;-69
2021/08/25 07:10:43;;;;;;;17.50;11.30;;;;;;;22.94;60.46;99520.05;1776727;80;21549;-69
2021/08/25 07:13:10;;;;;;;13.08;10.20;;;;;;;22.95;60.44;99518.98;1775238;80;21035;-67
2021/08/25 07:15:36;;;;;;;15.53;10.90;;;;;;;22.98;60.57;99521.70;1781148;79;21510;-69
2021/08/25 07:18:03;;;;;;;12.07;10.98;;;;;;;22.99;60.49;99531.48;1768139;80;20983;-67
2021/08/25 07:20:30;;;;;;;14.23;10.95;;;;;;;23.01;60.29;99527.98;1776788;80;21105;-67
2021/08/25 07:22:56;;;;;;;13.75;10.65;;;;;;;23.02;59.93;99532.86;1777098;80;21534;-68
2021/08/25 07:25:22;;;;;;;12.80;10.58;;;;;;;23.02;59.78;99535.56;1776994;80;21065;-67
2021/08/25 07:27:49;;;;;;;13.68;10.72;;;;;;;23.03;59.66;99529.13;1774336;79;20991;-67
2021/08/25 07:30:15;;;;;;;12.75;10.60;;;;;;;23.04;59.70;99528.03;1789808;78;21038;-68
2021/08/25 07:32:41;;;;;;;12.35;11.05;;;;;;;23.04;59.75;99537.52;1786281;80;21022;-69
2021/08/25 07:35:09;;;;;;;13.00;11.22;;;;;;;23.06;59.89;99534.01;1786055;80;21045;-69
2021/08/25 07:37:36;;;;;;;14.25;12.75;;;;;;;23.06;59.98;99530.75;1786466;80;21318;-69
2021/08/25 07:40:05;;;;;;;15.05;12.88;;;;;;;23.07;60.06;99526.18;1782694;80;21013;-68
2021/08/25 07:42:32;;;;;;;15.38;13.22;;;;;;;23.07;60.23;99522.92;1797624;79;21651;-69
2021/08/25 07:44:58;;;;;;;17.12;14.33;;;;;;;23.07;60.43;99526.18;1798738;79;21122;-68
2021/08/25 07:47:24;;;;;;;16.10;13.22;;;;;;;23.07;60.69;99532.95;1800216;79;21058;-68
2021/08/25 07:49:51;;;;;;;15.25;13.35;;;;;;;23.07;60.86;99524.83;1780244;79;21017;-69
2021/08/25 07:52:17;;;;;;;14.40;12.70;;;;;;;23.08;60.98;99534.56;1827939;77;21021;-68
2021/08/25 07:54:43;;;;;;;17.67;14.80;;;;;;;23.07;61.07;99525.62;1810932;77;21025;-69
2021/08/25 07:57:10;;;;;;;16.20;13.72;;;;;;;23.06;61.29;99520.46;1842754;77;21087;-68
2021/08/25 07:59:36;;;;;;;15.53;13.45;;;;;;;23.04;61.53;99518.00;1835993;77;21065;-68
2021/08/25 08:02:03;;;;;;;16.40;13.20;;;;;;;23.03;61.83;99517.73;1845322;76;21548;-68
2021/08/25 08:04:30;;;;;;;17.45;13.70;;;;;;;23.03;62.26;99519.64;1839741;76;21517;-68
2021/08/25 08:06:56;;;;;;;15.53;12.85;;;;;;;23.04;62.82;99522.61;1842795;77;21014;-68
2021/08/25 08:09:23;;;;;;;14.40;12.50;;;;;;;23.04;63.17;99527.48;1842646;77;21930;-68
2021/08/25 08:11:49;;;;;;;13.38;11.83;;;;;;;23.06;63.51;99524.52;1842590;77;20994;-67
2021/08/25 08:14:15;;;;;;;17.65;14.40;;;;;;;23.07;63.63;99528.34;1843014;77;21719;-68
2021/08/25 08:16:49;;;;;;;16.00;13.13;;;;;;;23.08;63.83;99525.09;1842609;77;21030;-67
2021/08/25 08:19:22;;;;;;;16.17;13.75;;;;;;;23.08;63.92;99516.95;1842579;76;21041;-68
2021/08/25 08:21:49;;;;;;;15.25;12.65;;;;;;;23.09;64.02;99519.97;1841678;77;21794;-67
2021/08/25 08:24:16;;;;;;;97.00;86.60;;;;;;;23.09;64.17;99514.55;1842923;77;20990;-68
2021/08/25 08:26:42;;;;;;;29.52;25.05;;;;;;;23.09;64.14;99516.70;1842614;77;21162;-70
2021/08/25 08:29:08;;;;;;;16.57;14.83;;;;;;;23.10;64.16;99517.01;1822865;77;21011;-69
2021/08/25 08:31:35;;;;;;;15.88;14.20;;;;;;;23.11;63.98;99517.81;1834405;77;20990;-69
2021/08/25 08:34:01;;;;;;;17.67;14.05;;;;;;;23.12;63.95;99525.70;1822098;77;21142;-69
2021/08/25 08:36:28;;;;;;;18.87;13.72;;;;;;;23.13;63.91;99517.83;1850791;77;21019;-68
2021/08/25 08:38:55;;;;;;;16.02;14.33;;;;;;;23.14;63.82;99513.22;1775692;80;21030;-68
2021/08/25 08:41:21;;;;;;;15.18;13.58;;;;;;;23.15;63.75;99509.45;1777875;79;21466;-69
2021/08/25 08:43:50;;;;;;;15.05;13.53;;;;;;;23.16;63.62;99505.14;1777242;80;21041;-68
2021/08/25 08:46:19;;;;;;;14.98;13.55;;;;;;;23.18;63.45;99511.66;1775678;80;21130;-68
2021/08/25 08:48:47;;;;;;;15.20;13.70;;;;;;;23.20;63.15;99518.16;1765554;80;20999;-68
2021/08/25 08:51:20;;;;;;;15.25;13.65;;;;;;;23.22;63.03;99516.84;1776844;80;21045;-68
2021/08/25 08:53:48;;;;;;;15.70;14.20;;;;;;;23.24;62.91;99511.17;1783272;80;21062;-68
2021/08/25 08:56:14;;;;;;;14.95;13.35;;;;;;;23.26;62.90;99512.54;1777078;80;21042;-68
2021/08/25 08:58:41;;;;;;;15.63;14.05;;;;;;;23.30;62.99;99512.84;1777062;80;21732;-69
2021/08/25 09:01:08;;;;;;;15.45;13.83;;;;;;;23.33;63.02;99510.95;1776646;80;21221;-68
2021/08/25 09:03:36;;;;;;;15.05;13.55;;;;;;;23.35;62.94;99504.23;1777015;80;21069;-68
2021/08/25 09:06:04;;;;;;;14.47;12.98;;;;;;;23.40;62.80;99502.62;1776516;80;21054;-68
2021/08/25 09:08:33;;;;;;;14.33;12.47;;;;;;;23.44;62.72;99495.61;1777259;80;21022;-69
2021/08/25 09:11:06;;;;;;;14.20;12.75;;;;;;;23.48;62.85;99500.80;1773973;80;21133;-69
2021/08/25 09:13:48;;;;;;;14.10;12.47;;;;;;;23.51;62.65;99499.73;1785481;79;21034;-67
2021/08/25 09:16:32;;;;;;;15.75;11.83;;;;;;;23.54;62.24;99499.20;1773148;80;21069;-69
2021/08/25 09:19:24;;;;;;;14.35;11.05;;;;;;;23.57;62.12;99496.53;1787464;79;21525;-68
2021/08/25 09:21:49;;;;;;;12.58;10.95;;;;;;;23.60;61.89;99493.28;1799361;79;21486;-68
2021/08/25 09:24:24;;;;;;;12.82;10.80;;;;;;;23.62;61.75;99499.80;1807462;79;20994;-69
2021/08/25 09:27:09;;;;;;;11.83;10.70;;;;;;;23.64;61.58;99501.72;1807058;79;21093;-68
2021/08/25 09:29:39;;;;;;;12.35;11.25;;;;;;;23.65;61.41;99499.30;1753419;80;20996;-70
2021/08/25 09:32:21;;;;;;;12.60;10.32;;;;;;;23.64;61.42;99494.42;1784611;80;21120;-68
2021/08/25 09:35:00;;;;;;;11.57;10.38;;;;;;;23.63;61.42;99491.42;1784553;80;21025;-70
2021/08/25 09:37:28;;;;;;;11.78;10.28;;;;;;;23.64;61.56;99494.42;1784227;80;21115;-69
2021/08/25 09:39:58;;;;;;;12.03;10.85;;;;;;;23.64;61.83;99489.52;1762656;80;21029;-68
2021/08/25 09:42:24;;;;;;;12.28;11.00;;;;;;;23.64;61.93;99486.80;1780708;80;21053;-70
2021/08/25 09:45:06;;;;;;;12.03;10.80;;;;;;;23.64;61.97;99473.25;1830521;77;20986;-68
2021/08/25 09:47:53;;;;;;;13.15;11.85;;;;;;;23.65;61.95;99478.41;1828883;77;21044;-68
2021/08/25 09:50:21;;;;;;;13.22;11.38;;;;;;;23.66;61.89;99477.87;1853395;77;21131;-70
2021/08/25 09:52:48;;;;;;;14.45;11.30;;;;;;;23.67;61.92;99482.23;1853600;77;21045;-69
2021/08/25 09:55:18;;;;;;;11.68;10.45;;;;;;;23.67;61.57;99477.61;1853391;77;21005;-68
2021/08/25 09:57:45;;;;;;;10.72;9.63;;;;;;;23.67;61.14;99476.25;1846679;77;21489;-69
2021/08/25 10:00:13;;;;;;;11.25;10.20;;;;;;;23.67;60.96;99468.13;1854066;77;21033;-69
2021/08/25 10:02:42;;;;;;;12.15;10.45;;;;;;;23.69;60.95;99451.05;1854016;77;21090;-69
2021/08/25 10:05:10;;;;;;;10.48;9.48;;;;;;;23.74;60.91;99451.64;1851576;77;21029;-67
2021/08/25 10:07:38;;;;;;;11.60;10.50;;;;;;;23.78;60.77;99440.57;1812886;77;21204;-68
2021/08/25 10:10:05;;;;;;;10.72;9.73;;;;;;;23.86;60.64;99445.48;1853664;77;21588;-69
2021/08/25 10:12:33;;;;;;;9.85;8.95;;;;;;;23.94;60.38;99442.82;1853480;76;21052;-70
2021/08/25 10:14:59;;;;;;;13.93;9.93;;;;;;;24.01;59.83;99443.41;1829150;77;21792;-70
2021/08/25 10:17:42;;;;;;;11.22;10.15;;;;;;;24.09;59.57;99440.73;1853637;77;21076;-69
2021/08/25 10:20:34;;;;;;;11.57;10.43;;;;;;;24.15;59.32;99449.16;1842818;77;21037;-69
2021/08/25 10:23:02;;;;;;;11.05;9.90;;;;;;;24.24;58.99;99444.86;1804147;77;21025;-70
2021/08/25 10:25:29;;;;;;;10.93;9.93;;;;;;;24.29;58.90;99444.86;1853674;77;21545;-68
2021/08/25 10:28:05;;;;;;;11.10;10.00;;;;;;;24.36;58.86;99439.72;1853281;77;21301;-69
2021/08/25 10:30:51;;;;;;;10.78;9.85;;;;;;;24.43;58.63;99444.37;1853000;77;21046;-69
2021/08/25 10:33:17;;;;;;;10.43;8.93;;;;;;;24.48;58.27;99443.84;1854112;77;21089;-70
2021/08/25 10:35:45;;;;;;;11.18;10.03;;;;;;;24.53;57.69;99435.75;1774981;80;21490;-68
2021/08/25 10:38:28;;;;;;;10.70;9.80;;;;;;;24.57;57.48;99431.97;1802921;78;21053;-68
2021/08/25 10:41:01;;;;;;;;;;;;;;;24.60;57.34;99426.53;1782297;79;21149;-69
2021/08/25 10:44:13;;;;;;;9.45;8.55;;;;;;;24.68;57.04;99425.45;1888973;75;22447;-68
2021/08/25 10:46:48;;;;;;;9.73;8.73;;;;;;;24.66;57.04;99426.81;1821231;78;21076;-68
2021/08/25 10:49:41;;;;;;;10.48;9.53;;;;;;;24.72;56.92;99417.58;1856895;77;21208;-70
2021/08/25 10:52:19;;;;;;;9.65;8.75;;;;;;;24.81;56.68;99419.23;1861164;76;20954;-68
2021/08/25 10:54:50;;;;;;;10.68;9.78;;;;;;;24.86;56.56;99407.00;1839209;77;21157;-68
2021/08/25 10:57:18;;;;;;;10.10;9.30;;;;;;;24.91;56.46;99402.38;1859560;77;21517;-68
2021/08/25 10:59:47;;;;;;;9.38;8.48;;;;;;;24.96;56.15;99397.52;1859928;77;21000;-68
2021/08/25 11:02:13;;;;;;;12.68;9.90;;;;;;;25.00;56.04;99399.95;1830614;77;22308;-68
2021/08/25 11:04:40;;;;;;;12.95;10.40;;;;;;;25.07;55.88;99403.75;1857734;77;21568;-69
2021/08/25 11:07:11;;;;;;;11.57;10.20;;;;;;;25.12;55.95;99396.96;1853908;77;20973;-68
2021/08/25 11:09:47;;;;;;;10.25;9.33;;;;;;;25.19;55.97;99388.52;1858122;76;21061;-69
2021/08/25 11:12:15;;;;;;;9.65;8.75;;;;;;;25.27;56.03;99386.11;1860355;77;21049;-68
2021/08/25 11:14:52;;;;;;;9.65;8.68;;;;;;;25.38;55.82;99388.28;1859943;77;21367;-68
2021/08/25 11:17:24;;;;;;;9.55;8.63;;;;;;;25.48;55.30;99382.81;1859891;77;21057;-68
2021/08/25 11:19:56;;;;;;;9.25;8.30;;;;;;;25.59;54.84;99379.50;1783686;80;21061;-67
2021/08/25 11:22:31;;;;;;;;;;;;;;;25.68;54.36;99383.29;1798672;79;21021;-68
2021/08/25 11:25:09;;;;;;;9.80;7.53;;;;;;;25.78;53.79;99384.36;1825402;78;20594;-69